sensor_id;sensor_type;location;lat;lon;timestamp;P1;durP1;ratioP1;P2;durP2;ratioP2
23596;SDS011;40226;50.874;4.394;2023-06-14T00:00:53;15.10;;;8.90;;
23596;SDS011;40226;50.874;4.394;2023-06-14T00:03:24;11.20;;;8.80;;
23596;SDS011;40226;50.874;4.394;2023-06-14T00:05:57;16.27;;;9.20;;
23596;SDS011;40226;50.874;4.394;2023-06-14T00:08:30;11.00;;;8.50;;
23596;SDS011;40226;50.874;4.394;2023-06-14T00:10:56;18.42;;;8.95;;
23596;SDS011;40226;50.874;4.394;2023-06-14T00:13:21;10.75;;;8.77;;
23596;SDS011;40226;50.874;4.394;2023-06-14T00:15:48;11.55;;;8.90;;
23596;SDS011;40226;50.874;4.394;2023-06-14T00:18:13;11.63;;;9.13;;
23596;SDS011;40226;50.874;4.394;2023-06-14T00:20:39;16.40;;;8.90;;
23596;SDS011;40226;50.874;4.394;2023-06-14T00:23:06;12.80;;;9.38;;
23596;SDS011;40226;50.874;4.394;2023-06-14T00:25:32;10.88;;;8.88;;
23596;SDS011;40226;50.874;4.394;2023-06-14T00:27:59;12.85;;;9.07;;
23596;SDS011;40226;50.874;4.394;2023-06-14T00:30:25;11.82;;;9.10;;
23596;SDS011;40226;50.874;4.394;2023-06-14T00:32:59;20.75;;;14.15;;
23596;SDS011;40226;50.874;4.394;2023-06-14T00:35:25;13.55;;;9.13;;
23596;SDS011;40226;50.874;4.394;2023-06-14T00:37:51;14.43;;;9.02;;
23596;SDS011;40226;50.874;4.394;2023-06-14T00:40:21;13.00;;;9.25;;
23596;SDS011;40226;50.874;4.394;2023-06-14T00:42:48;12.13;;;8.82;;
23596;SDS011;40226;50.874;4.394;2023-06-14T00:45:14;16.73;;;9.15;;
23596;SDS011;40226;50.874;4.394;2023-06-14T00:47:41;15.48;;;9.88;;
23596;SDS011;40226;50.874;4.394;2023-06-14T00:50:08;14.60;;;9.35;;
23596;SDS011;40226;50.874;4.394;2023-06-14T00:52:34;13.60;;;9.25;;
23596;SDS011;40226;50.874;4.394;2023-06-14T00:55:01;19.77;;;10.00;;
23596;SDS011;40226;50.874;4.394;2023-06-14T00:57:27;11.15;;;9.43;;
23596;SDS011;40226;50.874;4.394;2023-06-14T00:59:54;13.77;;;10.00;;
23596;SDS011;40226;50.874;4.394;2023-06-14T01:02:21;14.00;;;9.73;;
23596;SDS011;40226;50.874;4.394;2023-06-14T01:04:47;17.35;;;9.25;;
23596;SDS011;40226;50.874;4.394;2023-06-14T01:07:20;14.05;;;9.40;;
23596;SDS011;40226;50.874;4.394;2023-06-14T01:13:15;13.77;;;9.77;;
23596;SDS011;40226;50.874;4.394;2023-06-14T01:15:58;13.00;;;9.52;;
23596;SDS011;40226;50.874;4.394;2023-06-14T01:18:26;15.68;;;9.75;;
23596;SDS011;40226;50.874;4.394;2023-06-14T01:20:55;14.32;;;9.70;;
23596;SDS011;40226;50.874;4.394;2023-06-14T01:23:22;12.57;;;9.82;;
23596;SDS011;40226;50.874;4.394;2023-06-14T01:25:49;15.20;;;9.95;;
23596;SDS011;40226;50.874;4.394;2023-06-14T01:28:19;13.50;;;9.45;;
23596;SDS011;40226;50.874;4.394;2023-06-14T01:30:50;15.50;;;9.80;;
23596;SDS011;40226;50.874;4.394;2023-06-14T01:33:19;13.98;;;9.88;;
23596;SDS011;40226;50.874;4.394;2023-06-14T01:35:51;12.32;;;9.50;;
23596;SDS011;40226;50.874;4.394;2023-06-14T01:38:27;12.90;;;9.50;;
23596;SDS011;40226;50.874;4.394;2023-06-14T01:40:55;14.35;;;9.60;;
23596;SDS011;40226;50.874;4.394;2023-06-14T01:43:23;15.38;;;10.63;;
23596;SDS011;40226;50.874;4.394;2023-06-14T01:45:49;13.45;;;10.43;;
23596;SDS011;40226;50.874;4.394;2023-06-14T01:48:28;16.70;;;10.32;;
23596;SDS011;40226;50.874;4.394;2023-06-14T01:50:55;14.02;;;10.30;;
23596;SDS011;40226;50.874;4.394;2023-06-14T01:53:21;18.08;;;10.32;;
23596;SDS011;40226;50.874;4.394;2023-06-14T01:55:47;14.05;;;10.57;;
23596;SDS011;40226;50.874;4.394;2023-06-14T01:58:13;16.55;;;10.35;;
23596;SDS011;40226;50.874;4.394;2023-06-14T02:00:41;12.38;;;9.90;;
23596;SDS011;40226;50.874;4.394;2023-06-14T02:03:08;15.82;;;10.85;;
23596;SDS011;40226;50.874;4.394;2023-06-14T02:05:35;17.98;;;11.32;;
23596;SDS011;40226;50.874;4.394;2023-06-14T02:08:00;16.05;;;10.60;;
23596;SDS011;40226;50.874;4.394;2023-06-14T02:10:27;14.75;;;10.60;;
23596;SDS011;40226;50.874;4.394;2023-06-14T02:12:53;16.98;;;11.27;;
23596;SDS011;40226;50.874;4.394;2023-06-14T02:15:18;14.70;;;11.00;;
23596;SDS011;40226;50.874;4.394;2023-06-14T02:17:47;21.08;;;10.25;;
23596;SDS011;40226;50.874;4.394;2023-06-14T02:20:14;16.00;;;10.90;;
23596;SDS011;40226;50.874;4.394;2023-06-14T02:22:40;17.15;;;10.93;;
23596;SDS011;40226;50.874;4.394;2023-06-14T02:25:06;13.77;;;11.45;;
23596;SDS011;40226;50.874;4.394;2023-06-14T02:27:32;18.02;;;11.35;;
23596;SDS011;40226;50.874;4.394;2023-06-14T02:32:28;14.68;;;10.98;;
23596;SDS011;40226;50.874;4.394;2023-06-14T02:34:54;15.52;;;11.32;;
23596;SDS011;40226;50.874;4.394;2023-06-14T02:37:19;13.93;;;11.40;;
23596;SDS011;40226;50.874;4.394;2023-06-14T02:39:45;15.77;;;11.40;;
23596;SDS011;40226;50.874;4.394;2023-06-14T02:42:11;17.77;;;11.57;;
23596;SDS011;40226;50.874;4.394;2023-06-14T02:44:37;16.90;;;12.35;;
23596;SDS011;40226;50.874;4.394;2023-06-14T02:47:03;14.15;;;11.52;;
23596;SDS011;40226;50.874;4.394;2023-06-14T02:49:30;17.50;;;11.48;;
23596;SDS011;40226;50.874;4.394;2023-06-14T02:51:56;20.83;;;12.07;;
23596;SDS011;40226;50.874;4.394;2023-06-14T02:54:22;15.05;;;11.82;;
23596;SDS011;40226;50.874;4.394;2023-06-14T02:56:48;18.55;;;11.90;;
23596;SDS011;40226;50.874;4.394;2023-06-14T02:59:13;17.98;;;12.38;;
23596;SDS011;40226;50.874;4.394;2023-06-14T03:01:40;18.25;;;11.95;;
23596;SDS011;40226;50.874;4.394;2023-06-14T03:04:07;20.27;;;12.02;;
23596;SDS011;40226;50.874;4.394;2023-06-14T03:06:33;19.10;;;12.23;;
23596;SDS011;40226;50.874;4.394;2023-06-14T03:08:59;15.95;;;12.15;;
23596;SDS011;40226;50.874;4.394;2023-06-14T03:11:26;13.77;;;11.95;;
23596;SDS011;40226;50.874;4.394;2023-06-14T03:13:52;17.98;;;11.75;;
23596;SDS011;40226;50.874;4.394;2023-06-14T03:16:18;14.65;;;11.80;;
23596;SDS011;40226;50.874;4.394;2023-06-14T03:18:46;17.48;;;12.77;;
23596;SDS011;40226;50.874;4.394;2023-06-14T03:21:16;34.95;;;13.82;;
23596;SDS011;40226;50.874;4.394;2023-06-14T03:23:43;19.60;;;12.15;;
23596;SDS011;40226;50.874;4.394;2023-06-14T03:26:09;18.65;;;12.80;;
23596;SDS011;40226;50.874;4.394;2023-06-14T03:28:39;17.10;;;12.48;;
23596;SDS011;40226;50.874;4.394;2023-06-14T03:31:05;17.70;;;12.35;;
23596;SDS011;40226;50.874;4.394;2023-06-14T03:33:31;23.65;;;12.75;;
23596;SDS011;40226;50.874;4.394;2023-06-14T03:35:56;15.73;;;12.55;;
23596;SDS011;40226;50.874;4.394;2023-06-14T03:38:24;20.05;;;12.77;;
23596;SDS011;40226;50.874;4.394;2023-06-14T03:40:50;22.02;;;12.60;;
23596;SDS011;40226;50.874;4.394;2023-06-14T03:43:15;19.27;;;12.40;;
23596;SDS011;40226;50.874;4.394;2023-06-14T03:45:41;17.77;;;12.60;;
23596;SDS011;40226;50.874;4.394;2023-06-14T03:48:08;19.77;;;12.52;;
23596;SDS011;40226;50.874;4.394;2023-06-14T03:50:34;17.58;;;13.10;;
23596;SDS011;40226;50.874;4.394;2023-06-14T03:53:03;17.83;;;12.73;;
23596;SDS011;40226;50.874;4.394;2023-06-14T03:55:29;19.05;;;12.38;;
23596;SDS011;40226;50.874;4.394;2023-06-14T03:57:56;18.60;;;13.35;;
23596;SDS011;40226;50.874;4.394;2023-06-14T04:00:22;18.33;;;11.82;;
23596;SDS011;40226;50.874;4.394;2023-06-14T04:02:48;20.52;;;12.90;;
23596;SDS011;40226;50.874;4.394;2023-06-14T04:05:14;17.73;;;12.50;;
23596;SDS011;40226;50.874;4.394;2023-06-14T04:07:41;22.65;;;13.23;;
23596;SDS011;40226;50.874;4.394;2023-06-14T04:10:10;20.27;;;12.82;;
23596;SDS011;40226;50.874;4.394;2023-06-14T04:12:39;22.40;;;13.15;;
23596;SDS011;40226;50.874;4.394;2023-06-14T04:15:05;24.55;;;13.18;;
23596;SDS011;40226;50.874;4.394;2023-06-14T04:17:31;20.15;;;13.52;;
23596;SDS011;40226;50.874;4.394;2023-06-14T04:20:04;20.25;;;12.77;;
23596;SDS011;40226;50.874;4.394;2023-06-14T04:22:31;17.30;;;13.23;;
23596;SDS011;40226;50.874;4.394;2023-06-14T04:24:58;24.02;;;13.65;;
23596;SDS011;40226;50.874;4.394;2023-06-14T04:27:31;20.38;;;12.90;;
23596;SDS011;40226;50.874;4.394;2023-06-14T04:29:59;19.17;;;13.43;;
23596;SDS011;40226;50.874;4.394;2023-06-14T04:32:31;18.25;;;14.50;;
23596;SDS011;40226;50.874;4.394;2023-06-14T04:35:11;21.88;;;12.80;;
23596;SDS011;40226;50.874;4.394;2023-06-14T04:37:36;16.42;;;12.52;;
23596;SDS011;40226;50.874;4.394;2023-06-14T04:40:06;18.20;;;12.88;;
23596;SDS011;40226;50.874;4.394;2023-06-14T04:42:32;20.40;;;13.07;;
23596;SDS011;40226;50.874;4.394;2023-06-14T04:44:58;17.95;;;13.40;;
23596;SDS011;40226;50.874;4.394;2023-06-14T04:47:23;20.42;;;13.15;;
23596;SDS011;40226;50.874;4.394;2023-06-14T04:49:56;15.50;;;13.23;;
23596;SDS011;40226;50.874;4.394;2023-06-14T04:52:22;19.33;;;14.25;;
23596;SDS011;40226;50.874;4.394;2023-06-14T04:54:51;18.75;;;14.48;;
23596;SDS011;40226;50.874;4.394;2023-06-14T04:57:17;20.23;;;13.77;;
23596;SDS011;40226;50.874;4.394;2023-06-14T04:59:47;17.60;;;13.43;;
23596;SDS011;40226;50.874;4.394;2023-06-14T05:02:24;16.73;;;13.03;;
23596;SDS011;40226;50.874;4.394;2023-06-14T05:04:52;19.45;;;13.00;;
23596;SDS011;40226;50.874;4.394;2023-06-14T05:07:19;22.70;;;13.35;;
23596;SDS011;40226;50.874;4.394;2023-06-14T05:09:45;20.65;;;13.57;;
23596;SDS011;40226;50.874;4.394;2023-06-14T05:12:11;20.02;;;13.25;;
23596;SDS011;40226;50.874;4.394;2023-06-14T05:14:36;19.17;;;12.82;;
23596;SDS011;40226;50.874;4.394;2023-06-14T05:17:02;21.38;;;12.90;;
23596;SDS011;40226;50.874;4.394;2023-06-14T05:19:28;16.63;;;12.13;;
23596;SDS011;40226;50.874;4.394;2023-06-14T05:21:53;18.73;;;11.80;;
23596;SDS011;40226;50.874;4.394;2023-06-14T05:24:19;19.42;;;13.18;;
23596;SDS011;40226;50.874;4.394;2023-06-14T05:26:46;22.20;;;12.70;;
23596;SDS011;40226;50.874;4.394;2023-06-14T05:29:11;18.55;;;12.65;;
23596;SDS011;40226;50.874;4.394;2023-06-14T05:31:37;17.65;;;12.32;;
23596;SDS011;40226;50.874;4.394;2023-06-14T05:34:03;17.83;;;12.20;;
23596;SDS011;40226;50.874;4.394;2023-06-14T05:36:29;19.75;;;13.55;;
23596;SDS011;40226;50.874;4.394;2023-06-14T05:38:54;20.45;;;12.57;;
23596;SDS011;40226;50.874;4.394;2023-06-14T05:41:28;17.27;;;12.35;;
23596;SDS011;40226;50.874;4.394;2023-06-14T05:43:54;21.42;;;12.35;;
23596;SDS011;40226;50.874;4.394;2023-06-14T05:46:22;21.67;;;13.80;;
23596;SDS011;40226;50.874;4.394;2023-06-14T05:48:56;16.67;;;12.63;;
23596;SDS011;40226;50.874;4.394;2023-06-14T05:51:22;21.25;;;13.50;;
23596;SDS011;40226;50.874;4.394;2023-06-14T05:53:50;25.80;;;13.55;;
23596;SDS011;40226;50.874;4.394;2023-06-14T05:56:16;22.05;;;12.15;;
23596;SDS011;40226;50.874;4.394;2023-06-14T05:58:43;18.30;;;13.25;;
23596;SDS011;40226;50.874;4.394;2023-06-14T06:01:10;16.95;;;13.05;;
23596;SDS011;40226;50.874;4.394;2023-06-14T06:03:36;17.67;;;12.85;;
23596;SDS011;40226;50.874;4.394;2023-06-14T06:06:02;15.32;;;12.20;;
23596;SDS011;40226;50.874;4.394;2023-06-14T06:08:28;21.67;;;12.60;;
23596;SDS011;40226;50.874;4.394;2023-06-14T06:10:53;21.95;;;12.95;;
23596;SDS011;40226;50.874;4.394;2023-06-14T06:13:19;19.60;;;11.95;;
23596;SDS011;40226;50.874;4.394;2023-06-14T06:15:45;15.40;;;12.02;;
23596;SDS011;40226;50.874;4.394;2023-06-14T06:18:11;20.70;;;12.50;;
23596;SDS011;40226;50.874;4.394;2023-06-14T06:20:37;24.40;;;13.32;;
23596;SDS011;40226;50.874;4.394;2023-06-14T06:23:02;22.42;;;12.90;;
23596;SDS011;40226;50.874;4.394;2023-06-14T06:25:28;17.92;;;13.02;;
23596;SDS011;40226;50.874;4.394;2023-06-14T06:27:56;21.73;;;12.88;;
23596;SDS011;40226;50.874;4.394;2023-06-14T06:30:22;23.08;;;12.73;;
23596;SDS011;40226;50.874;4.394;2023-06-14T06:32:48;18.48;;;12.05;;
23596;SDS011;40226;50.874;4.394;2023-06-14T06:35:14;17.77;;;12.15;;
23596;SDS011;40226;50.874;4.394;2023-06-14T06:37:41;23.90;;;11.82;;
23596;SDS011;40226;50.874;4.394;2023-06-14T06:40:07;20.08;;;11.40;;
23596;SDS011;40226;50.874;4.394;2023-06-14T06:42:33;26.00;;;11.35;;
23596;SDS011;40226;50.874;4.394;2023-06-14T06:44:59;22.58;;;12.25;;
23596;SDS011;40226;50.874;4.394;2023-06-14T06:47:26;20.75;;;11.10;;
23596;SDS011;40226;50.874;4.394;2023-06-14T06:49:51;22.83;;;10.75;;
23596;SDS011;40226;50.874;4.394;2023-06-14T06:52:17;19.58;;;11.43;;
23596;SDS011;40226;50.874;4.394;2023-06-14T06:54:43;18.13;;;11.23;;
23596;SDS011;40226;50.874;4.394;2023-06-14T06:57:08;16.63;;;10.50;;
23596;SDS011;40226;50.874;4.394;2023-06-14T06:59:35;19.15;;;10.48;;
23596;SDS011;40226;50.874;4.394;2023-06-14T07:02:03;20.38;;;11.63;;
23596;SDS011;40226;50.874;4.394;2023-06-14T07:04:28;18.38;;;10.77;;
23596;SDS011;40226;50.874;4.394;2023-06-14T07:06:55;16.83;;;11.25;;
23596;SDS011;40226;50.874;4.394;2023-06-14T07:09:21;20.90;;;10.52;;
23596;SDS011;40226;50.874;4.394;2023-06-14T07:11:47;18.65;;;10.35;;
23596;SDS011;40226;50.874;4.394;2023-06-14T07:14:13;16.55;;;11.07;;
23596;SDS011;40226;50.874;4.394;2023-06-14T07:16:39;19.38;;;10.60;;
23596;SDS011;40226;50.874;4.394;2023-06-14T07:19:06;20.10;;;11.07;;
23596;SDS011;40226;50.874;4.394;2023-06-14T07:21:32;18.30;;;10.35;;
23596;SDS011;40226;50.874;4.394;2023-06-14T07:23:57;17.55;;;10.30;;
23596;SDS011;40226;50.874;4.394;2023-06-14T07:26:23;17.73;;;10.65;;
23596;SDS011;40226;50.874;4.394;2023-06-14T07:28:49;18.15;;;10.40;;
23596;SDS011;40226;50.874;4.394;2023-06-14T07:31:15;14.35;;;10.00;;
23596;SDS011;40226;50.874;4.394;2023-06-14T07:33:41;11.80;;;9.73;;
23596;SDS011;40226;50.874;4.394;2023-06-14T07:36:07;14.95;;;10.05;;
23596;SDS011;40226;50.874;4.394;2023-06-14T07:38:33;16.75;;;9.18;;
23596;SDS011;40226;50.874;4.394;2023-06-14T07:40:59;15.05;;;9.70;;
23596;SDS011;40226;50.874;4.394;2023-06-14T07:43:25;12.93;;;9.52;;
23596;SDS011;40226;50.874;4.394;2023-06-14T07:45:51;14.70;;;9.77;;
23596;SDS011;40226;50.874;4.394;2023-06-14T07:48:16;17.50;;;9.77;;
23596;SDS011;40226;50.874;4.394;2023-06-14T07:50:42;18.00;;;10.45;;
23596;SDS011;40226;50.874;4.394;2023-06-14T07:53:08;16.50;;;11.95;;
23596;SDS011;40226;50.874;4.394;2023-06-14T07:55:34;17.50;;;10.13;;
23596;SDS011;40226;50.874;4.394;2023-06-14T07:58:05;17.20;;;10.05;;
23596;SDS011;40226;50.874;4.394;2023-06-14T08:00:31;14.50;;;9.70;;
23596;SDS011;40226;50.874;4.394;2023-06-14T08:02:57;17.65;;;9.77;;
23596;SDS011;40226;50.874;4.394;2023-06-14T08:05:24;17.33;;;9.65;;
23596;SDS011;40226;50.874;4.394;2023-06-14T08:07:50;14.05;;;9.82;;
23596;SDS011;40226;50.874;4.394;2023-06-14T08:10:16;16.92;;;8.93;;
23596;SDS011;40226;50.874;4.394;2023-06-14T08:12:42;14.55;;;9.52;;
23596;SDS011;40226;50.874;4.394;2023-06-14T08:15:08;13.90;;;9.35;;
23596;SDS011;40226;50.874;4.394;2023-06-14T08:17:34;12.90;;;9.55;;
23596;SDS011;40226;50.874;4.394;2023-06-14T08:20:00;12.50;;;8.90;;
23596;SDS011;40226;50.874;4.394;2023-06-14T08:22:25;11.80;;;9.00;;
23596;SDS011;40226;50.874;4.394;2023-06-14T08:24:52;18.95;;;9.68;;
23596;SDS011;40226;50.874;4.394;2023-06-14T08:27:19;14.48;;;9.63;;
23596;SDS011;40226;50.874;4.394;2023-06-14T08:29:45;12.90;;;8.60;;
23596;SDS011;40226;50.874;4.394;2023-06-14T08:32:11;15.77;;;8.88;;
23596;SDS011;40226;50.874;4.394;2023-06-14T08:34:37;12.80;;;8.95;;
23596;SDS011;40226;50.874;4.394;2023-06-14T08:37:03;16.58;;;9.05;;
23596;SDS011;40226;50.874;4.394;2023-06-14T08:39:29;15.75;;;9.20;;
23596;SDS011;40226;50.874;4.394;2023-06-14T08:41:54;15.00;;;8.40;;
23596;SDS011;40226;50.874;4.394;2023-06-14T08:44:21;12.23;;;8.85;;
23596;SDS011;40226;50.874;4.394;2023-06-14T08:46:47;17.30;;;9.00;;
23596;SDS011;40226;50.874;4.394;2023-06-14T08:49:13;22.98;;;9.73;;
23596;SDS011;40226;50.874;4.394;2023-06-14T08:51:41;16.48;;;9.85;;
23596;SDS011;40226;50.874;4.394;2023-06-14T08:54:08;13.70;;;9.38;;
23596;SDS011;40226;50.874;4.394;2023-06-14T08:56:37;14.00;;;8.93;;
23596;SDS011;40226;50.874;4.394;2023-06-14T08:59:03;18.15;;;9.60;;
23596;SDS011;40226;50.874;4.394;2023-06-14T09:01:32;19.23;;;9.52;;
23596;SDS011;40226;50.874;4.394;2023-06-14T09:03:59;17.55;;;9.00;;
23596;SDS011;40226;50.874;4.394;2023-06-14T09:06:25;18.95;;;9.63;;
23596;SDS011;40226;50.874;4.394;2023-06-14T09:08:53;17.20;;;10.50;;
23596;SDS011;40226;50.874;4.394;2023-06-14T09:11:20;25.65;;;10.27;;
23596;SDS011;40226;50.874;4.394;2023-06-14T09:13:46;10.23;;;8.20;;
23596;SDS011;40226;50.874;4.394;2023-06-14T09:16:14;15.60;;;9.00;;
23596;SDS011;40226;50.874;4.394;2023-06-14T09:18:42;14.90;;;9.25;;
23596;SDS011;40226;50.874;4.394;2023-06-14T09:21:10;13.27;;;9.60;;
23596;SDS011;40226;50.874;4.394;2023-06-14T09:23:37;16.55;;;9.73;;
23596;SDS011;40226;50.874;4.394;2023-06-14T09:26:11;12.60;;;8.90;;
23596;SDS011;40226;50.874;4.394;2023-06-14T09:28:41;14.60;;;9.13;;
23596;SDS011;40226;50.874;4.394;2023-06-14T09:31:14;17.50;;;8.68;;
23596;SDS011;40226;50.874;4.394;2023-06-14T09:33:41;16.80;;;8.85;;
23596;SDS011;40226;50.874;4.394;2023-06-14T09:36:13;12.98;;;9.05;;
23596;SDS011;40226;50.874;4.394;2023-06-14T09:38:55;16.73;;;9.10;;
23596;SDS011;40226;50.874;4.394;2023-06-14T09:41:31;19.95;;;8.95;;
23596;SDS011;40226;50.874;4.394;2023-06-14T09:44:00;15.65;;;8.90;;
23596;SDS011;40226;50.874;4.394;2023-06-14T09:46:27;13.85;;;8.20;;
23596;SDS011;40226;50.874;4.394;2023-06-14T09:48:54;15.07;;;8.32;;
23596;SDS011;40226;50.874;4.394;2023-06-14T09:51:25;12.65;;;8.38;;
23596;SDS011;40226;50.874;4.394;2023-06-14T09:53:52;11.75;;;8.27;;
23596;SDS011;40226;50.874;4.394;2023-06-14T09:56:24;14.45;;;8.70;;
23596;SDS011;40226;50.874;4.394;2023-06-14T09:58:55;15.10;;;8.15;;
23596;SDS011;40226;50.874;4.394;2023-06-14T10:01:22;13.07;;;7.07;;
23596;SDS011;40226;50.874;4.394;2023-06-14T10:03:55;12.63;;;7.97;;
23596;SDS011;40226;50.874;4.394;2023-06-14T10:06:26;15.27;;;9.32;;
23596;SDS011;40226;50.874;4.394;2023-06-14T10:08:54;15.18;;;8.32;;
23596;SDS011;40226;50.874;4.394;2023-06-14T10:11:22;15.40;;;8.57;;
23596;SDS011;40226;50.874;4.394;2023-06-14T10:13:52;15.68;;;8.18;;
23596;SDS011;40226;50.874;4.394;2023-06-14T10:16:22;11.38;;;7.45;;
23596;SDS011;40226;50.874;4.394;2023-06-14T10:24:44;10.35;;;7.30;;
23596;SDS011;40226;50.874;4.394;2023-06-14T10:27:14;11.63;;;7.00;;
23596;SDS011;40226;50.874;4.394;2023-06-14T10:32:26;10.82;;;6.82;;
23596;SDS011;40226;50.874;4.394;2023-06-14T10:34:57;14.88;;;6.85;;
23596;SDS011;40226;50.874;4.394;2023-06-14T10:37:24;13.50;;;7.43;;
23596;SDS011;40226;50.874;4.394;2023-06-14T10:39:50;9.00;;;7.13;;
23596;SDS011;40226;50.874;4.394;2023-06-14T10:42:16;12.80;;;7.80;;
23596;SDS011;40226;50.874;4.394;2023-06-14T10:44:43;12.27;;;7.10;;
23596;SDS011;40226;50.874;4.394;2023-06-14T10:47:20;13.55;;;7.20;;
23596;SDS011;40226;50.874;4.394;2023-06-14T10:49:50;9.60;;;7.03;;
23596;SDS011;40226;50.874;4.394;2023-06-14T10:52:40;14.20;;;7.15;;
23596;SDS011;40226;50.874;4.394;2023-06-14T10:55:08;7.82;;;6.22;;
23596;SDS011;40226;50.874;4.394;2023-06-14T10:57:42;9.90;;;6.25;;
23596;SDS011;40226;50.874;4.394;2023-06-14T11:00:14;9.68;;;6.82;;
23596;SDS011;40226;50.874;4.394;2023-06-14T11:05:54;14.90;;;6.85;;
23596;SDS011;40226;50.874;4.394;2023-06-14T11:11:13;10.73;;;6.55;;
23596;SDS011;40226;50.874;4.394;2023-06-14T11:13:42;7.57;;;5.70;;
23596;SDS011;40226;50.874;4.394;2023-06-14T11:16:13;9.35;;;5.82;;
23596;SDS011;40226;50.874;4.394;2023-06-14T11:18:44;10.18;;;6.00;;
23596;SDS011;40226;50.874;4.394;2023-06-14T11:21:10;9.80;;;6.72;;
23596;SDS011;40226;50.874;4.394;2023-06-14T11:23:40;10.25;;;6.25;;
23596;SDS011;40226;50.874;4.394;2023-06-14T11:26:05;10.00;;;6.20;;
23596;SDS011;40226;50.874;4.394;2023-06-14T11:28:38;10.18;;;6.00;;
23596;SDS011;40226;50.874;4.394;2023-06-14T11:31:05;11.20;;;5.90;;
23596;SDS011;40226;50.874;4.394;2023-06-14T11:33:31;8.23;;;5.45;;
23596;SDS011;40226;50.874;4.394;2023-06-14T11:35:57;11.80;;;6.18;;
23596;SDS011;40226;50.874;4.394;2023-06-14T11:38:23;9.43;;;6.10;;
23596;SDS011;40226;50.874;4.394;2023-06-14T11:40:49;11.10;;;6.30;;
23596;SDS011;40226;50.874;4.394;2023-06-14T11:43:15;11.18;;;6.00;;
23596;SDS011;40226;50.874;4.394;2023-06-14T11:45:41;9.23;;;6.00;;
23596;SDS011;40226;50.874;4.394;2023-06-14T11:48:07;11.43;;;5.78;;
23596;SDS011;40226;50.874;4.394;2023-06-14T11:50:32;7.65;;;5.82;;
23596;SDS011;40226;50.874;4.394;2023-06-14T11:53:03;8.65;;;5.57;;
23596;SDS011;40226;50.874;4.394;2023-06-14T11:55:35;10.18;;;5.38;;
23596;SDS011;40226;50.874;4.394;2023-06-14T11:58:05;8.82;;;5.35;;
23596;SDS011;40226;50.874;4.394;2023-06-14T12:00:31;9.82;;;5.95;;
23596;SDS011;40226;50.874;4.394;2023-06-14T12:02:57;7.03;;;5.45;;
23596;SDS011;40226;50.874;4.394;2023-06-14T12:05:23;10.65;;;5.40;;
23596;SDS011;40226;50.874;4.394;2023-06-14T12:07:50;9.88;;;5.50;;
23596;SDS011;40226;50.874;4.394;2023-06-14T12:10:18;8.60;;;5.50;;
23596;SDS011;40226;50.874;4.394;2023-06-14T12:12:44;8.63;;;5.28;;
23596;SDS011;40226;50.874;4.394;2023-06-14T12:15:10;8.73;;;5.30;;
23596;SDS011;40226;50.874;4.394;2023-06-14T12:17:38;7.72;;;5.20;;
23596;SDS011;40226;50.874;4.394;2023-06-14T12:20:07;9.98;;;5.40;;
23596;SDS011;40226;50.874;4.394;2023-06-14T12:22:59;10.45;;;5.00;;
23596;SDS011;40226;50.874;4.394;2023-06-14T12:25:31;8.80;;;5.25;;
23596;SDS011;40226;50.874;4.394;2023-06-14T12:27:59;10.50;;;5.68;;
23596;SDS011;40226;50.874;4.394;2023-06-14T12:30:35;9.02;;;5.28;;
23596;SDS011;40226;50.874;4.394;2023-06-14T12:33:02;9.93;;;5.65;;
23596;SDS011;40226;50.874;4.394;2023-06-14T12:35:28;8.93;;;5.70;;
23596;SDS011;40226;50.874;4.394;2023-06-14T12:37:54;10.05;;;5.22;;
23596;SDS011;40226;50.874;4.394;2023-06-14T12:40:21;8.25;;;5.00;;
23596;SDS011;40226;50.874;4.394;2023-06-14T12:42:47;9.82;;;4.75;;
23596;SDS011;40226;50.874;4.394;2023-06-14T12:45:12;10.13;;;5.03;;
23596;SDS011;40226;50.874;4.394;2023-06-14T12:47:38;9.30;;;4.72;;
23596;SDS011;40226;50.874;4.394;2023-06-14T12:50:04;7.68;;;4.90;;
23596;SDS011;40226;50.874;4.394;2023-06-14T12:52:30;8.40;;;5.20;;
23596;SDS011;40226;50.874;4.394;2023-06-14T12:54:56;7.68;;;5.35;;
23596;SDS011;40226;50.874;4.394;2023-06-14T12:57:22;10.65;;;4.93;;
23596;SDS011;40226;50.874;4.394;2023-06-14T12:59:48;9.57;;;4.90;;
23596;SDS011;40226;50.874;4.394;2023-06-14T13:02:15;10.77;;;4.88;;
23596;SDS011;40226;50.874;4.394;2023-06-14T13:04:43;9.30;;;4.43;;
23596;SDS011;40226;50.874;4.394;2023-06-14T13:07:09;7.47;;;4.72;;
23596;SDS011;40226;50.874;4.394;2023-06-14T13:09:39;9.48;;;4.68;;
23596;SDS011;40226;50.874;4.394;2023-06-14T13:12:06;7.88;;;4.05;;
23596;SDS011;40226;50.874;4.394;2023-06-14T13:14:32;7.85;;;4.47;;
23596;SDS011;40226;50.874;4.394;2023-06-14T13:16:58;10.38;;;4.32;;
23596;SDS011;40226;50.874;4.394;2023-06-14T13:19:23;5.80;;;4.00;;
23596;SDS011;40226;50.874;4.394;2023-06-14T13:21:49;5.90;;;3.80;;
23596;SDS011;40226;50.874;4.394;2023-06-14T13:24:15;7.57;;;4.25;;
23596;SDS011;40226;50.874;4.394;2023-06-14T13:26:40;7.38;;;3.92;;
23596;SDS011;40226;50.874;4.394;2023-06-14T13:29:06;7.45;;;4.07;;
23596;SDS011;40226;50.874;4.394;2023-06-14T13:31:32;9.15;;;3.80;;
23596;SDS011;40226;50.874;4.394;2023-06-14T13:33:58;12.02;;;3.90;;
23596;SDS011;40226;50.874;4.394;2023-06-14T13:36:23;8.38;;;4.03;;
23596;SDS011;40226;50.874;4.394;2023-06-14T13:38:49;13.50;;;4.55;;
23596;SDS011;40226;50.874;4.394;2023-06-14T13:41:16;5.72;;;4.00;;
23596;SDS011;40226;50.874;4.394;2023-06-14T13:43:42;5.55;;;3.88;;
23596;SDS011;40226;50.874;4.394;2023-06-14T13:46:07;7.18;;;3.90;;
23596;SDS011;40226;50.874;4.394;2023-06-14T13:48:33;6.28;;;3.78;;
23596;SDS011;40226;50.874;4.394;2023-06-14T13:50:59;8.27;;;4.03;;
23596;SDS011;40226;50.874;4.394;2023-06-14T13:53:25;9.40;;;3.70;;
23596;SDS011;40226;50.874;4.394;2023-06-14T13:55:51;6.72;;;3.15;;
23596;SDS011;40226;50.874;4.394;2023-06-14T13:58:17;6.95;;;3.20;;
23596;SDS011;40226;50.874;4.394;2023-06-14T14:00:43;5.07;;;2.70;;
23596;SDS011;40226;50.874;4.394;2023-06-14T14:03:09;8.18;;;3.22;;
23596;SDS011;40226;50.874;4.394;2023-06-14T14:05:37;6.70;;;2.83;;
23596;SDS011;40226;50.874;4.394;2023-06-14T14:08:03;8.45;;;3.22;;
23596;SDS011;40226;50.874;4.394;2023-06-14T14:10:29;9.20;;;3.00;;
23596;SDS011;40226;50.874;4.394;2023-06-14T14:12:55;7.32;;;2.80;;
23596;SDS011;40226;50.874;4.394;2023-06-14T14:15:21;4.35;;;2.80;;
23596;SDS011;40226;50.874;4.394;2023-06-14T14:17:48;5.53;;;2.67;;
23596;SDS011;40226;50.874;4.394;2023-06-14T14:20:17;5.97;;;2.70;;
23596;SDS011;40226;50.874;4.394;2023-06-14T14:22:42;5.28;;;2.40;;
23596;SDS011;40226;50.874;4.394;2023-06-14T14:25:08;3.45;;;2.13;;
23596;SDS011;40226;50.874;4.394;2023-06-14T14:27:34;4.30;;;2.60;;
23596;SDS011;40226;50.874;4.394;2023-06-14T14:30:00;7.78;;;2.85;;
23596;SDS011;40226;50.874;4.394;2023-06-14T14:32:26;3.17;;;2.33;;
23596;SDS011;40226;50.874;4.394;2023-06-14T14:34:51;10.05;;;3.33;;
23596;SDS011;40226;50.874;4.394;2023-06-14T14:37:17;3.03;;;2.30;;
23596;SDS011;40226;50.874;4.394;2023-06-14T14:39:43;4.80;;;2.47;;
23596;SDS011;40226;50.874;4.394;2023-06-14T14:42:10;3.28;;;2.17;;
23596;SDS011;40226;50.874;4.394;2023-06-14T14:44:37;5.57;;;2.58;;
23596;SDS011;40226;50.874;4.394;2023-06-14T14:47:03;5.75;;;2.25;;
23596;SDS011;40226;50.874;4.394;2023-06-14T14:49:30;12.80;;;2.80;;
23596;SDS011;40226;50.874;4.394;2023-06-14T14:51:56;4.75;;;2.20;;